Time;durP1;ratioP1;P1;durP2;ratioP2;P2;SDS_P1;SDS_P2;PMS_P1;PMS_P2;Temp;Humidity;BMP_temperature;BMP_pressure;BME280_temperature;BME280_humidity;BME280_pressure;Samples;Min_cycle;Max_cycle;Signal;HPM_P1;HPM_P2
2022/02/07 00:02:04;;;;;;;2.30;0.60;;;24.60;64.60;;;;;;4139734;28;20065;-71
2022/02/07 00:04:32;;;;;;;1.80;0.38;;;24.60;64.80;;;;;;4137627;28;20034;-71
2022/02/07 00:06:55;;;;;;;1.85;0.60;;;24.60;64.70;;;;;;4130435;28;20065;-69
2022/02/07 00:09:17;;;;;;;2.70;0.68;;;24.60;64.80;;;;;;4134864;28;20034;-71
2022/02/07 00:11:39;;;;;;;2.75;0.73;;;24.60;64.70;;;;;;4142485;28;20440;-69
2022/02/07 00:14:02;;;;;;;0.32;0.32;;;24.60;64.60;;;;;;4138414;28;20041;-71
2022/02/07 00:16:24;;;;;;;0.40;0.32;;;24.60;64.60;;;;;;4136728;28;20120;-70
2022/02/07 00:18:47;;;;;;;1.35;0.50;;;24.60;64.60;;;;;;4138986;28;20068;-68
2022/02/07 00:21:09;;;;;;;1.33;0.60;;;24.70;64.70;;;;;;4134707;28;20026;-70
2022/02/07 00:23:32;;;;;;;1.33;0.60;;;24.60;64.60;;;;;;4135469;28;20042;-71
2022/02/07 00:25:55;;;;;;;0.80;0.40;;;24.70;64.70;;;;;;4131524;28;20033;-68
2022/02/07 00:28:17;;;;;;;1.75;0.47;;;24.70;64.50;;;;;;4121918;28;21034;-68
2022/02/07 00:30:40;;;;;;;0.60;0.30;;;24.70;64.50;;;;;;4136487;28;20041;-68
2022/02/07 00:33:03;;;;;;;1.05;0.43;;;24.70;64.50;;;;;;4136922;28;20527;-70
2022/02/07 00:35:26;;;;;;;1.98;0.73;;;24.70;64.50;;;;;;4138625;28;20140;-70
2022/02/07 00:37:51;;;;;;;0.47;0.40;;;24.70;65.10;;;;;;4136083;28;20121;-68
2022/02/07 00:42:50;;;;;;;0.75;0.30;;;24.80;64.40;;;;;;4137337;28;20100;-69
2022/02/07 00:45:24;;;;;;;1.73;0.50;;;24.70;64.40;;;;;;4136233;28;20055;-68
2022/02/07 00:47:47;;;;;;;3.30;0.52;;;24.80;64.40;;;;;;4143248;28;20073;-73
2022/02/07 00:50:09;;;;;;;2.47;0.60;;;24.80;64.30;;;;;;4140379;28;20026;-72
2022/02/07 00:52:32;;;;;;;1.55;0.45;;;24.80;64.20;;;;;;4138821;28;20057;-72
2022/02/07 00:54:55;;;;;;;1.05;0.40;;;24.90;64.10;;;;;;4160284;28;20034;-73
2022/02/07 00:57:18;;;;;;;0.52;0.40;;;24.90;64.20;;;;;;4158105;28;20037;-72
2022/02/07 00:59:40;;;;;;;1.33;0.50;;;25.00;64.20;;;;;;4155593;28;20029;-70
2022/02/07 01:02:03;;;;;;;1.42;0.50;;;24.90;64.10;;;;;;4155816;28;20080;-71
2022/02/07 01:04:25;;;;;;;1.17;0.50;;;24.90;64.10;;;;;;4155183;28;20041;-71
2022/02/07 01:06:48;;;;;;;0.57;0.40;;;24.90;64.10;;;;;;4143029;28;20038;-72
2022/02/07 01:11:51;;;;;;;2.53;0.70;;;24.90;64.50;;;;;;4154081;28;20045;-72
2022/02/07 01:15:02;;;;;;;1.38;0.60;;;24.90;64.10;;;;;;4159844;28;20037;-70
2022/02/07 01:19:54;;;;;;;0.40;0.30;;;24.90;64.10;;;;;;4156290;28;20103;-75
2022/02/07 01:22:36;;;;;;;1.63;0.65;;;24.90;64.00;;;;;;4159341;28;20033;-74
2022/02/07 01:49:26;;;;;;;3.38;1.27;;;24.80;62.60;;;;;;4159668;28;20049;-74
2022/02/07 01:54:34;;;;;;;1.75;0.93;;;24.80;62.70;;;;;;4154598;28;20113;-76
2022/02/07 01:56:57;;;;;;;4.78;1.30;;;24.80;62.50;;;;;;4151931;28;20041;-76
2022/02/07 01:59:19;;;;;;;4.00;1.30;;;24.80;61.50;;;;;;4158539;28;20056;-72
2022/02/07 02:01:42;;;;;;;4.65;1.55;;;24.80;61.60;;;;;;4165915;28;20419;-73
2022/02/07 02:04:08;;;;;;;2.30;0.90;;;24.80;61.70;;;;;;4156298;28;20233;-73
2022/02/07 02:06:31;;;;;;;1.58;0.90;;;24.70;61.80;;;;;;4151781;28;20042;-74
2022/02/07 02:08:55;;;;;;;2.78;1.00;;;24.70;61.70;;;;;;4162624;28;20045;-73
2022/02/07 02:11:17;;;;;;;3.25;1.23;;;24.70;61.60;;;;;;4157412;28;20092;-74
2022/02/07 02:16:34;;;;;;;2.53;0.93;;;24.60;60.40;;;;;;4154645;28;20040;-72
2022/02/07 02:37:52;;;;;;;1.90;0.60;;;24.60;61.00;;;;;;4159626;28;20458;-72
2022/02/07 02:45:34;;;;;;;1.85;0.60;;;24.60;61.60;;;;;;4157334;28;20049;-74
2022/02/07 02:48:04;;;;;;;1.05;0.50;;;24.60;61.70;;;;;;4155183;28;20159;-73
2022/02/07 02:50:29;;;;;;;2.97;0.85;;;24.70;61.80;;;;;;4151906;28;20491;-74
2022/02/07 02:52:51;;;;;;;2.00;0.70;;;24.60;61.90;;;;;;4153998;28;20053;-73
2022/02/07 02:55:13;;;;;;;1.95;0.50;;;24.70;62.10;;;;;;4159246;28;20033;-73
2022/02/07 02:57:36;;;;;;;2.63;0.70;;;24.70;62.10;;;;;;4155939;28;20041;-73
2022/02/07 02:59:58;;;;;;;1.77;0.63;;;24.70;62.00;;;;;;4156440;28;20028;-71
2022/02/07 03:02:21;;;;;;;3.33;1.05;;;24.60;61.90;;;;;;4157633;28;20692;-71
2022/02/07 03:04:43;;;;;;;1.75;0.65;;;24.70;62.70;;;;;;4154320;28;20029;-72
2022/02/07 03:07:06;;;;;;;1.13;0.55;;;24.60;62.20;;;;;;4153071;28;20064;-71
2022/02/07 03:09:29;;;;;;;1.50;0.40;;;24.60;62.30;;;;;;4152901;28;20121;-73
2022/02/07 03:11:52;;;;;;;2.00;0.50;;;24.70;62.40;;;;;;4156165;28;20093;-72
2022/02/07 03:14:21;;;;;;;1.30;0.53;;;24.70;62.40;;;;;;4155193;28;20120;-73
2022/02/07 03:16:44;;;;;;;1.73;0.60;;;24.70;62.90;;;;;;4152212;28;20275;-72
2022/02/07 03:19:14;;;;;;;3.80;1.10;;;24.80;62.30;;;;;;4154889;28;20033;-72
2022/02/07 03:21:37;;;;;;;1.40;0.50;;;24.70;62.20;;;;;;4158529;28;20172;-71
2022/02/07 03:24:01;;;;;;;2.17;0.73;;;24.80;62.10;;;;;;4151384;28;20076;-72
2022/02/07 03:26:23;;;;;;;3.03;0.65;;;24.80;62.00;;;;;;4149505;28;20053;-72
2022/02/07 03:28:50;;;;;;;1.65;0.50;;;24.80;62.10;;;;;;4147024;28;20563;-72
2022/02/07 03:31:13;;;;;;;1.33;0.40;;;24.80;62.10;;;;;;4154627;28;20119;-72
2022/02/07 03:33:37;;;;;;;1.52;0.47;;;24.80;62.00;;;;;;4152076;28;20128;-70
2022/02/07 03:36:00;;;;;;;1.92;0.60;;;24.80;62.00;;;;;;4158225;28;20033;-74
2022/02/07 03:38:22;;;;;;;2.72;0.68;;;24.80;62.10;;;;;;4157930;28;20041;-77
2022/02/07 03:40:44;;;;;;;2.15;0.47;;;24.80;62.10;;;;;;4148583;28;20104;-73
2022/02/07 03:43:07;;;;;;;1.75;0.82;;;24.80;62.00;;;;;;4157213;28;20124;-76
2022/02/07 03:45:30;;;;;;;2.85;0.75;;;24.80;62.40;;;;;;4156111;28;20590;-73
2022/02/07 03:47:54;;;;;;;3.00;0.90;;;24.80;62.50;;;;;;4148972;28;20038;-77
2022/02/07 03:50:15;;;;;;;;;;;24.80;62.70;;;;;;4160367;28;20079;-74
2022/02/07 03:52:38;;;;;;;3.40;1.10;;;24.80;62.80;;;;;;4158862;28;20015;-62
2022/02/07 03:55:01;;;;;;;3.40;1.40;;;24.80;62.80;;;;;;4156519;28;20041;-80
2022/02/07 03:57:23;;;;;;;5.30;2.83;;;24.80;62.80;;;;;;4158333;28;20033;-83
2022/02/07 03:59:46;;;;;;;5.13;1.95;;;24.80;63.10;;;;;;4159841;28;20047;-78
2022/02/07 04:02:08;;;;;;;3.92;2.00;;;24.80;63.10;;;;;;4162382;28;20476;-76
2022/02/07 04:04:31;;;;;;;4.45;2.10;;;24.80;63.20;;;;;;4149960;28;20128;-82
2022/02/07 04:06:53;;;;;;;6.95;3.35;;;24.90;63.20;;;;;;4156092;28;20178;-73
2022/02/07 04:09:20;;;;;;;5.30;2.97;;;24.80;63.60;;;;;;4151165;28;20063;-77
2022/02/07 04:11:49;;;;;;;5.82;3.60;;;24.90;63.80;;;;;;4151836;28;20033;-80
2022/02/07 04:14:19;;;;;;;8.20;3.90;;;24.80;63.70;;;;;;4160343;28;20045;-78
2022/02/07 04:16:41;;;;;;;6.68;3.75;;;24.80;64.20;;;;;;4159481;28;20045;-76
2022/02/07 04:19:14;;;;;;;7.20;2.90;;;24.80;64.40;;;;;;4148863;28;20223;-79
2022/02/07 04:21:38;;;;;;;4.85;2.35;;;24.80;64.70;;;;;;4163339;28;20033;-84
2022/02/07 04:24:00;;;;;;;8.65;2.85;;;24.80;64.70;;;;;;4159561;28;20168;-80
2022/02/07 04:26:23;;;;;;;8.48;2.58;;;24.80;64.70;;;;;;4162749;28;20095;-76
2022/02/07 04:28:45;;;;;;;5.25;2.40;;;24.80;65.30;;;;;;4158734;28;20141;-79
2022/02/07 04:31:08;;;;;;;7.22;2.50;;;24.70;64.50;;;;;;4164294;28;20470;-76
2022/02/07 04:33:30;;;;;;;4.53;2.22;;;24.80;64.70;;;;;;4162535;28;20199;-81
2022/02/07 04:35:53;;;;;;;5.68;1.92;;;24.80;65.00;;;;;;4155213;28;20030;-75
2022/02/07 04:38:15;;;;;;;3.30;1.40;;;24.70;65.20;;;;;;4157662;28;20847;-74
2022/02/07 04:40:38;;;;;;;5.28;1.70;;;24.70;64.70;;;;;;4160899;28;20061;-74
2022/02/07 04:43:00;;;;;;;4.97;1.63;;;24.70;65.30;;;;;;4155365;28;20124;-73
2022/02/07 04:45:37;;;;;;;5.57;1.70;;;24.60;65.70;;;;;;4156984;28;20042;-79
2022/02/07 04:48:24;;;;;;;4.38;1.52;;;24.60;65.10;;;;;;4153778;28;20617;-72
2022/02/07 04:51:06;;;;;;;6.80;1.67;;;24.60;65.00;;;;;;4156073;28;20045;-74
2022/02/07 04:53:53;;;;;;;5.55;1.60;;;24.60;66.20;;;;;;4151196;28;20049;-76
2022/02/07 05:01:25;;;;;;;5.60;1.67;;;24.60;65.10;;;;;;4159084;28;20203;-72
2022/02/07 05:03:53;;;;;;;6.75;1.75;;;24.60;65.40;;;;;;4156219;28;20535;-74
2022/02/07 05:14:18;;;;;;;6.80;2.20;;;24.60;66.00;;;;;;4152892;28;20052;-74
2022/02/07 05:16:41;;;;;;;5.43;1.83;;;24.60;65.80;;;;;;4141287;28;20042;-74
2022/02/07 05:19:05;;;;;;;7.50;2.30;;;24.50;65.70;;;;;;4152838;28;20155;-78
2022/02/07 05:21:27;;;;;;;10.80;2.72;;;24.60;65.80;;;;;;4153438;28;20034;-74
2022/02/07 05:23:51;;;;;;;8.68;2.70;;;24.50;66.10;;;;;;4151305;28;20034;-71
2022/02/07 05:26:13;;;;;;;8.40;3.92;;;24.50;66.00;;;;;;4154523;28;20034;-72
2022/02/07 05:28:36;;;;;;;12.13;5.03;;;24.50;66.10;;;;;;4149729;28;20041;-72
2022/02/07 05:30:58;;;;;;;14.27;5.10;;;24.50;66.10;;;;;;4130284;28;20060;-74
2022/02/07 05:33:21;;;;;;;14.20;4.93;;;24.50;66.20;;;;;;4152659;28;20045;-71
2022/02/07 05:35:43;;;;;;;13.73;4.22;;;24.50;66.20;;;;;;4146305;28;20433;-71
2022/02/07 05:38:08;;;;;;;10.20;3.70;;;24.60;65.90;;;;;;4155472;28;20607;-72
2022/02/07 05:40:39;;;;;;;10.38;2.90;;;24.60;65.80;;;;;;4156966;28;20060;-72
2022/02/07 06:34:28;;;;;;;5.28;1.40;;;24.50;63.80;;;;;;4137951;28;20090;-76
2022/02/07 06:36:50;;;;;;;4.05;1.50;;;24.40;63.80;;;;;;4104737;28;20165;-71
2022/02/07 06:39:13;;;;;;;6.03;1.58;;;24.40;63.80;;;;;;4105706;28;21475;-71
2022/02/07 06:41:36;;;;;;;6.20;1.53;;;24.40;63.70;;;;;;4092728;28;20039;-71
2022/02/07 06:43:58;;;;;;;6.88;1.95;;;24.40;63.70;;;;;;4126916;28;20276;-71
2022/02/07 06:46:21;;;;;;;4.13;1.40;;;24.40;63.70;;;;;;4128851;28;20046;-72
2022/02/07 06:48:43;;;;;;;4.18;1.42;;;24.40;63.90;;;;;;4131408;28;20065;-71
2022/02/07 06:51:07;;;;;;;6.90;1.60;;;24.30;63.90;;;;;;4131053;28;20054;-73
2022/02/07 06:53:30;;;;;;;4.72;2.08;;;24.30;64.10;;;;;;4129559;28;20053;-72
2022/02/07 06:55:52;;;;;;;5.30;1.77;;;24.30;64.20;;;;;;4129265;28;20110;-70
2022/02/07 06:58:15;;;;;;;4.07;2.10;;;24.30;64.30;;;;;;4123929;28;20042;-71
2022/02/07 07:00:38;;;;;;;5.37;2.13;;;24.30;64.30;;;;;;4116147;28;20092;-73
2022/02/07 07:03:00;;;;;;;7.35;2.58;;;24.30;65.00;;;;;;4124193;28;20038;-73
2022/02/07 07:05:23;;;;;;;5.88;2.47;;;24.30;64.50;;;;;;4120358;28;20356;-71
2022/02/07 07:07:47;;;;;;;6.17;1.93;;;24.20;64.60;;;;;;4121237;28;20658;-70
2022/02/07 07:10:10;;;;;;;3.63;1.73;;;24.20;64.80;;;;;;4122774;28;20045;-71
2022/02/07 07:12:32;;;;;;;4.20;1.38;;;24.20;64.80;;;;;;4119240;28;20046;-71
2022/02/07 07:15:15;;;;;;;5.95;1.70;;;24.20;64.90;;;;;;4120546;28;20026;-71
2022/02/07 07:17:38;;;;;;;4.15;1.48;;;24.20;64.80;;;;;;4115097;28;20035;-64
2022/02/07 07:20:02;;;;;;;3.92;1.90;;;24.20;64.90;;;;;;4119408;28;20562;-64
2022/02/07 07:22:25;;;;;;;4.72;1.55;;;24.30;65.00;;;;;;4119984;28;20034;-63
2022/02/07 07:24:47;;;;;;;6.40;1.70;;;24.30;65.10;;;;;;4119060;28;20122;-62
2022/02/07 07:27:12;;;;;;;3.88;1.00;;;24.30;65.30;;;;;;4119776;28;20031;-63
2022/02/07 07:29:38;;;;;;;5.50;1.50;;;24.30;64.90;;;;;;4115588;28;20042;-64
2022/02/07 07:32:04;;;;;;;6.13;1.60;;;24.30;64.80;;;;;;4113242;28;20046;-65
2022/02/07 07:34:27;;;;;;;7.15;1.60;;;24.30;65.00;;;;;;4115628;28;20066;-64
2022/02/07 07:36:49;;;;;;;10.98;1.98;;;24.30;65.10;;;;;;4135733;28;20044;-64
2022/02/07 07:39:14;;;;;;;4.80;1.65;;;24.30;64.80;;;;;;4137536;28;20060;-65
2022/02/07 07:41:38;;;;;;;5.60;1.33;;;24.30;64.50;;;;;;4131733;28;20070;-64
2022/02/07 07:44:00;;;;;;;2.53;0.98;;;24.30;63.70;;;;;;4126343;28;20118;-65
2022/02/07 07:46:36;;;;;;;5.63;1.58;;;24.30;63.80;;;;;;4138150;28;20030;-63
2022/02/07 07:49:07;;;;;;;4.28;1.48;;;24.30;63.80;;;;;;4137444;28;20051;-65
2022/02/07 08:02:13;;;;;;;4.30;1.23;;;24.20;63.50;;;;;;4137842;28;20041;-71
2022/02/07 08:04:38;;;;;;;3.22;1.83;;;24.20;63.40;;;;;;4135649;28;20121;-71
2022/02/07 08:07:08;;;;;;;4.93;2.00;;;24.20;63.40;;;;;;4132835;28;20080;-72
2022/02/07 08:09:45;;;;;;;8.05;2.17;;;24.20;63.30;;;;;;4138017;28;20120;-71
2022/02/07 08:12:10;;;;;;;4.70;1.90;;;24.20;63.30;;;;;;4136210;28;20037;-71
2022/02/07 08:14:34;;;;;;;6.60;2.25;;;24.10;63.30;;;;;;4136337;28;20042;-71
2022/02/07 08:16:56;;;;;;;;;;;24.20;63.50;;;;;;4122858;28;20424;-70
2022/02/07 08:19:18;;;;;;;3.58;1.73;;;24.10;63.50;;;;;;4140686;28;19921;-70
2022/02/07 08:21:41;;;;;;;5.25;1.90;;;24.10;63.20;;;;;;4140318;28;20069;-74
2022/02/07 08:24:05;;;;;;;6.00;2.13;;;24.10;63.30;;;;;;4147188;28;20065;-75
2022/02/07 08:26:27;;;;;;;5.10;1.85;;;24.10;63.40;;;;;;4142167;28;20045;-71
2022/02/07 08:28:50;;;;;;;4.78;2.17;;;24.10;62.80;;;;;;4141134;28;20037;-71
2022/02/07 08:31:12;;;;;;;8.40;2.00;;;24.10;63.20;;;;;;4141180;28;20459;-72
2022/02/07 08:33:35;;;;;;;4.30;2.00;;;24.10;63.00;;;;;;4132290;28;20073;-71
2022/02/07 08:35:57;;;;;;;7.57;2.28;;;24.10;63.00;;;;;;4036016;28;2990397;-71
2022/02/07 08:38:20;;;;;;;9.05;2.08;;;24.00;63.00;;;;;;4141033;28;20053;-72
2022/02/07 08:40:42;;;;;;;4.47;1.80;;;24.10;63.10;;;;;;4143246;28;20041;-71
2022/02/07 08:43:05;;;;;;;5.75;1.95;;;24.00;63.20;;;;;;4141208;28;20038;-71
2022/02/07 08:45:28;;;;;;;4.30;1.77;;;24.00;63.50;;;;;;4142442;28;20033;-70
2022/02/07 08:47:51;;;;;;;7.40;1.83;;;24.10;63.20;;;;;;4144652;28;20034;-74
2022/02/07 08:50:14;;;;;;;4.82;1.50;;;24.10;63.20;;;;;;4136274;28;20124;-66
2022/02/07 08:52:36;;;;;;;3.60;1.60;;;24.10;63.40;;;;;;4143746;28;20057;-66
2022/02/07 08:55:00;;;;;;;4.20;1.60;;;24.10;63.60;;;;;;4129083;28;20092;-65
2022/02/07 09:00:15;;;;;;;3.78;1.75;;;24.10;63.40;;;;;;4150940;28;19976;-65
2022/02/07 09:05:11;;;;;;;3.10;1.35;;;24.10;62.80;;;;;;4147135;28;20085;-66
2022/02/07 09:07:37;;;;;;;3.55;1.30;;;24.10;62.70;;;;;;4147469;28;20033;-65
2022/02/07 09:09:59;;;;;;;4.50;1.70;;;24.00;62.60;;;;;;4148525;28;20132;-65
2022/02/07 09:12:22;;;;;;;4.15;1.38;;;24.10;62.60;;;;;;4145362;28;20041;-65
2022/02/07 09:14:56;;;;;;;5.85;1.48;;;24.00;62.40;;;;;;4145952;28;20033;-65
2022/02/07 09:17:19;;;;;;;3.92;1.48;;;24.00;62.40;;;;;;4150706;28;20053;-66
2022/02/07 09:19:44;;;;;;;6.85;1.55;;;24.00;62.40;;;;;;4149656;28;20112;-65
2022/02/07 09:22:07;;;;;;;3.45;1.10;;;24.00;62.50;;;;;;4150899;28;20201;-66
2022/02/07 09:24:29;;;;;;;;;;;24.10;62.70;;;;;;4148195;28;20060;-67
2022/02/07 09:26:52;;;;;;;2.80;1.20;;;24.10;62.80;;;;;;4139022;28;19938;-65
2022/02/07 09:29:15;;;;;;;4.30;1.33;;;24.10;62.60;;;;;;4138247;28;20048;-65
2022/02/07 09:31:37;;;;;;;2.38;1.13;;;24.10;62.50;;;;;;4143289;28;20044;-64
2022/02/07 09:34:00;;;;;;;5.68;1.10;;;24.10;62.30;;;;;;4127930;28;20053;-66
2022/02/07 09:36:25;;;;;;;2.75;0.93;;;24.10;62.40;;;;;;4142506;28;20121;-65
2022/02/07 09:38:48;;;;;;;3.58;1.02;;;24.10;62.40;;;;;;4144034;28;20050;-65
2022/02/07 09:41:11;;;;;;;2.40;0.90;;;24.10;62.20;;;;;;4141514;28;20442;-65
2022/02/07 09:43:41;;;;;;;4.13;1.30;;;24.10;62.20;;;;;;4141426;28;20334;-66
2022/02/07 09:46:09;;;;;;;3.55;1.27;;;24.10;62.20;;;;;;4142929;28;20049;-64
2022/02/07 09:48:34;;;;;;;4.40;1.80;;;24.00;62.20;;;;;;4142315;28;20442;-66
2022/02/07 09:50:57;;;;;;;7.07;1.50;;;24.00;62.10;;;;;;4144638;28;20128;-66
2022/02/07 09:53:19;;;;;;;4.82;1.17;;;24.00;62.20;;;;;;4143621;28;20081;-66
2022/02/07 09:55:42;;;;;;;3.75;1.45;;;24.00;62.20;;;;;;4144275;28;20756;-65
2022/02/07 09:58:06;;;;;;;4.05;1.30;;;24.00;62.20;;;;;;4144292;28;20057;-65
2022/02/07 10:00:33;;;;;;;4.07;1.50;;;24.00;62.20;;;;;;4143964;28;20037;-65
2022/02/07 10:03:22;;;;;;;4.30;1.85;;;24.00;62.30;;;;;;4141328;28;20523;-65
2022/02/07 10:05:56;;;;;;;3.85;1.60;;;24.00;62.40;;;;;;4143800;28;20085;-65
2022/02/07 10:16:35;;;;;;;3.45;1.38;;;24.00;62.50;;;;;;4111569;28;20046;-67
2022/02/07 10:22:27;;;;;;;4.43;1.30;;;24.00;62.80;;;;;;4142219;28;20051;-64
2022/02/07 10:38:22;;;;;;;3.25;1.13;;;24.00;63.10;;;;;;4143356;28;20475;-64
2022/02/07 10:43:29;;;;;;;3.78;1.25;;;24.00;63.10;;;;;;4143400;28;20363;-65
2022/02/07 10:46:16;;;;;;;3.80;1.08;;;23.90;63.20;;;;;;4143025;28;20443;-65
2022/02/07 10:48:48;;;;;;;3.38;1.40;;;23.90;63.20;;;;;;4145131;28;20357;-66
2022/02/07 10:51:23;;;;;;;1.85;1.00;;;23.90;63.30;;;;;;4145449;28;20045;-66
2022/02/07 10:53:54;;;;;;;5.28;1.75;;;23.90;63.50;;;;;;4143750;28;20073;-65
2022/02/07 10:56:21;;;;;;;6.38;1.50;;;23.90;63.40;;;;;;4145093;28;20100;-65
2022/02/07 10:58:46;;;;;;;1.98;0.70;;;23.90;63.60;;;;;;4146966;28;20558;-65
2022/02/07 11:01:15;;;;;;;3.65;1.25;;;23.90;63.70;;;;;;4145397;28;20107;-64
2022/02/07 11:03:45;;;;;;;5.22;1.55;;;23.90;63.70;;;;;;4148584;28;20862;-66
2022/02/07 11:06:11;;;;;;;3.72;1.27;;;23.90;63.70;;;;;;4148952;28;20034;-65
2022/02/07 11:08:51;;;;;;;3.30;1.00;;;23.90;63.80;;;;;;4150010;28;20476;-65
2022/02/07 11:27:31;;;;;;;2.55;1.10;;;23.80;63.90;;;;;;4149998;28;20127;-66
2022/02/07 11:29:54;;;;;;;5.43;1.42;;;23.80;64.00;;;;;;4143938;28;20177;-65
2022/02/07 11:32:43;;;;;;;4.70;1.48;;;23.80;64.00;;;;;;4145833;28;20059;-66
2022/02/07 11:35:07;;;;;;;6.85;1.38;;;23.80;63.90;;;;;;4143717;28;20062;-65
2022/02/07 11:37:29;;;;;;;5.15;1.42;;;23.80;64.40;;;;;;4143755;28;20759;-64
2022/02/07 11:39:52;;;;;;;5.35;1.35;;;23.80;64.50;;;;;;4141404;28;20049;-65
2022/02/07 11:42:14;;;;;;;3.13;1.13;;;23.70;64.50;;;;;;4145866;28;20116;-65
2022/02/07 11:44:43;;;;;;;4.25;1.00;;;23.80;64.70;;;;;;4142257;28;20048;-67
2022/02/07 11:47:24;;;;;;;2.22;0.80;;;23.80;64.80;;;;;;4144279;28;20121;-66
2022/02/07 11:49:56;;;;;;;5.25;1.20;;;23.80;64.80;;;;;;4142633;28;20449;-64
2022/02/07 11:52:35;;;;;;;2.80;0.90;;;23.80;64.80;;;;;;4144077;28;20057;-67
2022/02/07 11:55:06;;;;;;;2.75;1.13;;;23.80;64.90;;;;;;4144943;28;20034;-65
2022/02/07 11:57:38;;;;;;;2.83;0.90;;;23.80;64.80;;;;;;4143178;28;20049;-67
2022/02/07 12:00:09;;;;;;;4.38;1.20;;;23.80;64.90;;;;;;4145998;28;20045;-66
2022/02/07 12:02:46;;;;;;;5.10;1.08;;;23.80;64.60;;;;;;4143647;28;20620;-64
2022/02/07 12:05:09;;;;;;;7.05;1.25;;;23.80;64.70;;;;;;4142627;28;20121;-65
2022/02/07 12:07:36;;;;;;;2.87;0.70;;;23.80;64.70;;;;;;4144575;28;20134;-63
2022/02/07 12:12:52;;;;;;;;;;;23.80;64.80;;;;;;4145174;28;20049;-65
2022/02/07 12:15:34;;;;;;;3.58;0.85;;;23.80;64.80;;;;;;4125171;28;20226;-71
2022/02/07 12:18:00;;;;;;;1.63;0.90;;;23.80;64.80;;;;;;4141551;28;20042;-71
2022/02/07 12:20:25;;;;;;;3.78;0.90;;;23.80;64.50;;;;;;4144752;28;20038;-71
2022/02/07 12:22:54;;;;;;;1.30;0.60;;;23.80;64.50;;;;;;4142450;28;20114;-69
2022/02/07 12:25:54;;;;;;;2.67;0.90;;;23.70;64.50;;;;;;4141996;28;20081;-71
2022/02/07 12:33:34;;;;;;;3.47;1.02;;;23.70;64.50;;;;;;4146300;28;20103;-70
2022/02/07 12:36:00;;;;;;;5.72;1.05;;;23.70;64.60;;;;;;4146767;28;20111;-71
2022/02/07 12:38:24;;;;;;;2.88;0.70;;;23.70;64.40;;;;;;4147193;28;20041;-70
2022/02/07 12:40:47;;;;;;;3.00;1.05;;;23.70;64.30;;;;;;4145016;28;20317;-71
2022/02/07 12:43:13;;;;;;;4.32;1.23;;;23.60;64.40;;;;;;4146713;28;20046;-70
2022/02/07 12:45:36;;;;;;;2.40;1.05;;;23.70;64.50;;;;;;4145466;28;20041;-71
2022/02/07 12:48:05;;;;;;;5.30;1.10;;;23.70;64.60;;;;;;4145313;28;20029;-71
2022/02/07 12:50:28;;;;;;;2.72;0.77;;;23.60;64.50;;;;;;4146777;28;20682;-71
2022/02/07 12:52:58;;;;;;;3.28;0.80;;;23.60;64.70;;;;;;4146878;28;20057;-71
2022/02/07 12:55:21;;;;;;;1.83;0.77;;;23.60;64.80;;;;;;4145967;28;20101;-71
2022/02/07 12:57:45;;;;;;;3.72;0.93;;;23.70;64.70;;;;;;4146276;28;20083;-71
2022/02/07 13:00:19;;;;;;;4.30;1.00;;;23.70;64.70;;;;;;4144904;28;20080;-72
2022/02/07 13:02:43;;;;;;;1.83;0.90;;;23.70;64.70;;;;;;4143324;28;20041;-71
2022/02/07 13:05:10;;;;;;;1.98;0.73;;;23.70;64.80;;;;;;4143244;28;20037;-70
2022/02/07 13:07:37;;;;;;;1.63;0.70;;;23.70;64.70;;;;;;4146464;28;20116;-71
2022/02/07 13:10:00;;;;;;;3.63;1.00;;;23.60;64.50;;;;;;4131378;28;20057;-71
2022/02/07 13:12:51;;;;;;;3.75;0.73;;;23.60;64.50;;;;;;4147284;28;20462;-71
2022/02/07 13:15:18;;;;;;;1.45;0.70;;;23.60;64.60;;;;;;4145954;28;20077;-71
2022/02/07 13:17:40;;;;;;;2.08;0.88;;;23.60;64.60;;;;;;4146439;28;20041;-72
2022/02/07 13:20:08;;;;;;;2.85;0.82;;;23.60;64.70;;;;;;4145507;28;20191;-71
2022/02/07 13:22:31;;;;;;;2.75;0.90;;;23.60;64.80;;;;;;4143540;28;20045;-72
2022/02/07 13:24:57;;;;;;;2.20;0.70;;;23.60;64.80;;;;;;4145767;28;20436;-71
2022/02/07 13:27:20;;;;;;;1.70;0.80;;;23.60;64.70;;;;;;4145551;28;20120;-72
2022/02/07 13:29:49;;;;;;;2.10;0.80;;;23.60;64.60;;;;;;4145816;28;20083;-71
2022/02/07 13:32:14;;;;;;;2.28;0.75;;;23.60;64.30;;;;;;4145327;28;20049;-72
2022/02/07 13:34:40;;;;;;;3.13;0.60;;;23.60;64.60;;;;;;4128892;28;20042;-69
2022/02/07 13:37:10;;;;;;;1.42;0.60;;;23.60;64.60;;;;;;4146314;28;20064;-69
2022/02/07 13:39:48;;;;;;;3.42;0.88;;;23.60;64.60;;;;;;4145835;28;20033;-70
2022/02/07 13:42:13;;;;;;;5.32;1.23;;;23.60;64.70;;;;;;4148335;28;20044;-70
2022/02/07 13:44:43;;;;;;;5.40;0.90;;;23.60;64.50;;;;;;4146949;28;20030;-70
2022/02/07 13:47:06;;;;;;;2.60;0.68;;;23.60;64.10;;;;;;4146301;28;20033;-68
2022/02/07 13:49:29;;;;;;;2.33;0.80;;;23.60;64.70;;;;;;4146806;28;20033;-68
2022/02/07 13:51:53;;;;;;;3.22;1.00;;;23.50;64.00;;;;;;4146120;28;20060;-69
2022/02/07 13:54:28;;;;;;;3.97;1.35;;;23.50;64.10;;;;;;4146024;28;20046;-68
2022/02/07 13:56:56;;;;;;;3.63;1.33;;;23.50;65.10;;;;;;4131108;28;20430;-69
2022/02/07 13:59:20;;;;;;;4.25;1.35;;;23.50;65.20;;;;;;4147431;28;20044;-69
2022/02/07 14:01:46;;;;;;;7.18;1.33;;;23.50;65.10;;;;;;4145898;28;20053;-68
2022/02/07 14:04:17;;;;;;;7.47;1.30;;;23.50;65.50;;;;;;4144424;28;20104;-69
2022/02/07 14:06:45;;;;;;;4.25;1.25;;;23.50;65.30;;;;;;4143732;28;20041;-69
2022/02/07 14:09:11;;;;;;;2.97;1.00;;;23.50;65.20;;;;;;4144713;28;20112;-69
2022/02/07 14:11:34;;;;;;;2.65;1.27;;;23.50;65.20;;;;;;4146165;28;20042;-69
2022/02/07 14:14:01;;;;;;;0.68;0.40;;;23.50;65.20;;;;;;4146001;28;20049;-70
2022/02/07 14:16:26;;;;;;;3.50;0.98;;;23.50;65.00;;;;;;4146630;28;20073;-69
2022/02/07 14:18:50;;;;;;;2.80;1.08;;;23.50;65.10;;;;;;4144169;28;20488;-68
2022/02/07 14:21:15;;;;;;;3.92;0.90;;;23.50;65.00;;;;;;4144149;28;20073;-70
2022/02/07 14:23:43;;;;;;;1.88;0.90;;;23.40;65.10;;;;;;4145340;28;20096;-67
2022/02/07 14:26:08;;;;;;;10.45;1.30;;;23.40;64.90;;;;;;4130330;28;20053;-68
2022/02/07 14:28:31;;;;;;;5.25;1.05;;;23.40;65.20;;;;;;4144216;28;20683;-68
2022/02/07 14:30:54;;;;;;;4.00;1.17;;;23.40;65.20;;;;;;4144147;28;20049;-67
2022/02/07 14:33:17;;;;;;;3.40;0.90;;;23.40;65.20;;;;;;4142254;28;20478;-68
2022/02/07 14:35:39;;;;;;;4.50;0.95;;;23.40;65.00;;;;;;4143676;28;20131;-68
2022/02/07 14:38:04;;;;;;;1.27;0.80;;;23.40;64.90;;;;;;4143677;28;20041;-67
2022/02/07 14:40:27;;;;;;;2.00;0.90;;;23.40;64.90;;;;;;4140530;28;20125;-70
2022/02/07 14:42:50;;;;;;;3.40;0.90;;;23.40;64.60;;;;;;4145894;28;20057;-70
2022/02/07 14:45:25;;;;;;;5.68;1.20;;;23.30;64.60;;;;;;4143071;28;20033;-70
2022/02/07 14:50:13;;;;;;;1.85;0.60;;;23.30;64.80;;;;;;4143892;28;20084;-68
2022/02/07 14:52:36;;;;;;;1.77;0.90;;;23.30;64.80;;;;;;4144832;28;20135;-69
2022/02/07 14:54:58;;;;;;;3.90;1.20;;;23.30;64.70;;;;;;4147045;28;20046;-69
2022/02/07 14:57:21;;;;;;;2.35;0.77;;;23.30;64.70;;;;;;4147008;28;20049;-70
2022/02/07 14:59:43;;;;;;;1.90;0.90;;;23.20;64.60;;;;;;4145762;28;20045;-69
2022/02/07 15:02:06;;;;;;;1.48;1.00;;;23.20;64.70;;;;;;4145402;28;21031;-68
2022/02/07 15:04:28;;;;;;;2.60;1.00;;;23.20;65.50;;;;;;4144260;28;20038;-70
2022/02/07 15:06:51;;;;;;;2.20;0.82;;;23.20;64.80;;;;;;4146958;28;20037;-71
2022/02/07 15:09:13;;;;;;;2.10;0.82;;;23.20;64.40;;;;;;4148537;28;20056;-71
2022/02/07 15:11:36;;;;;;;1.98;0.60;;;23.20;64.80;;;;;;4146083;28;20829;-70
2022/02/07 15:13:59;;;;;;;2.00;0.70;;;23.10;64.80;;;;;;4145477;28;20631;-69
2022/02/07 15:16:22;;;;;;;0.88;0.68;;;23.10;64.90;;;;;;4146941;28;20044;-69
2022/02/07 15:18:45;;;;;;;7.23;0.90;;;23.10;65.00;;;;;;4148881;28;20077;-69
2022/02/07 15:21:08;;;;;;;1.45;0.70;;;23.10;65.10;;;;;;4147254;28;20275;-69
2022/02/07 15:23:31;;;;;;;1.92;0.93;;;23.10;65.20;;;;;;4147582;28;20120;-69
2022/02/07 15:25:53;;;;;;;2.17;0.65;;;23.10;65.20;;;;;;4147204;28;20348;-70
2022/02/07 15:28:16;;;;;;;2.85;0.75;;;23.10;65.20;;;;;;4149175;28;20388;-70
2022/02/07 15:30:40;;;;;;;2.97;0.90;;;23.10;65.20;;;;;;4149625;28;20033;-69
2022/02/07 15:33:04;;;;;;;3.83;1.05;;;23.10;65.80;;;;;;4150749;28;20101;-71
2022/02/07 15:35:27;;;;;;;1.58;0.93;;;23.10;65.30;;;;;;4148804;28;20122;-69
2022/02/07 15:37:49;;;;;;;2.45;0.70;;;23.00;65.10;;;;;;4147215;28;20218;-70
2022/02/07 15:40:12;;;;;;;2.30;0.88;;;23.10;65.20;;;;;;4149276;28;20368;-70
2022/02/07 15:42:35;;;;;;;2.20;0.90;;;23.00;65.10;;;;;;4153658;28;20041;-70
2022/02/07 15:45:00;;;;;;;1.83;0.77;;;23.00;65.20;;;;;;4151902;28;20423;-70
2022/02/07 15:47:26;;;;;;;1.05;0.55;;;23.00;65.80;;;;;;4152753;28;20122;-71
2022/02/07 15:49:48;;;;;;;2.65;0.88;;;23.00;65.20;;;;;;4149453;28;20125;-70
2022/02/07 15:52:11;;;;;;;2.28;0.90;;;23.00;65.10;;;;;;4148023;28;20168;-69
2022/02/07 15:54:38;;;;;;;2.53;0.82;;;23.00;65.00;;;;;;4147154;28;20045;-69
2022/02/07 15:57:01;;;;;;;1.65;0.70;;;23.00;65.10;;;;;;4146545;28;20692;-70